Sunflower Satsuma — JG5189 — position and weather

sailwx.info

Track history (hours):
 
Tides and Currents Weather Stations Pressure Air Temp Water Temp Dewpoint Dewpoint Depression Visibility Wind Speed Wind Dir Waves Ship Positions

Sunflower Satsuma

Last reported at 2017-Dec-11 15:06 UTC. Time now 2017-Dec-12 06:13 UTC.
Position N 32°37' E 133°19'.

Length 186 m; draft 6.4 m.

Type: Passenger vessel. MMSI: 431319000.

Date/timePositionNaut miles runAvg speedWind from/ knotsBaromVisibWave heightAir tempDewpointWater temp
2017-Dec-11 15:06N 32°37' E 133°19'96 3.5
2017-Dec-10 11:17N 33°42' E 134°44'622.0
2017-Dec-10 11:00N 33°46' E 134°49'1121.7
2017-Dec-10 10:30N 33°57' E 134°53'1122.1
2017-Dec-10 10:00N 34°07' E 134°56'1122.3
2017-Dec-10 09:30N 34°18' E 134°59'1021.0
2017-Dec-10 09:01N 34°26' E 135°07'1121.4
2017-Dec-10 08:30N 34°34' E 135°16'816.4
2017-Dec-10 08:00N 34°38' E 135°24'0 0.0
2017-Dec-10 07:30N 34°38' E 135°24'0 0.0
2017-Dec-10 06:58N 34°38' E 135°24'0 0.0
2017-Dec-10 06:28N 34°38' E 135°24'0 0.0
2017-Dec-10 05:58N 34°38' E 135°24'0 0.0
2017-Dec-10 05:28N 34°38' E 135°24'0 0.0
2017-Dec-10 04:58N 34°38' E 135°24'0 0.0
2017-Dec-10 04:28N 34°38' E 135°24'0 0.0
2017-Dec-10 03:58N 34°38' E 135°24'0 0.0
2017-Dec-10 03:28N 34°38' E 135°24'0 0.0
2017-Dec-10 02:58N 34°38' E 135°24'0 0.0
2017-Dec-10 02:28N 34°38' E 135°24'0 0.0
2017-Dec-10 01:55N 34°38' E 135°24'0 0.0
2017-Dec-10 01:28N 34°38' E 135°24'0 0.0
2017-Dec-10 00:58N 34°38' E 135°24'0 0.0
2017-Dec-10 00:28N 34°38' E 135°24'0 0.0
2017-Dec-09 23:58N 34°38' E 135°24'1 2.0
2017-Dec-09 23:31N 34°38' E 135°23'1020.1
2017-Dec-09 23:00N 34°31' E 135°15'1121.6
2017-Dec-09 22:30N 34°23' E 135°05'1020.6
2017-Dec-09 22:00N 34°15' E 134°58'1121.5
2017-Dec-09 21:30N 34°04' E 134°55'1121.5
2017-Dec-09 21:00N 33°54' E 134°52'1120.5
2017-Dec-09 20:29N 33°44' E 134°46'9822.2
2017-Dec-09 16:05N 32°37' E 133°20'224.0
2017-Dec-09 16:00N 32°36' E 133°19'102 3.6
2017-Dec-08 11:48N 33°47' E 134°47'622.4
2017-Dec-08 11:31N 33°53' E 134°51'1122.6
2017-Dec-08 11:00N 34°04' E 134°55'1223.4
2017-Dec-08 10:31N 34°15' E 134°58'1121.9
2017-Dec-08 10:01N 34°25' E 135°04'1123.0
2017-Dec-08 09:31N 34°32' E 135°15'918.8
2017-Dec-08 09:00N 34°38' E 135°24'1 1.2
2017-Dec-08 08:31N 34°38' E 135°24'0 0.0
2017-Dec-08 07:59N 34°38' E 135°24'0 0.0
2017-Dec-08 07:29N 34°38' E 135°24'0 0.0
2017-Dec-08 06:59N 34°38' E 135°24'0 0.0
2017-Dec-08 06:29N 34°38' E 135°24'0 0.0
2017-Dec-08 05:59N 34°38' E 135°24'0 0.0
2017-Dec-08 05:29N 34°38' E 135°24'0 0.0
2017-Dec-08 04:59N 34°38' E 135°24'0 0.0
2017-Dec-08 04:29N 34°38' E 135°24'0 0.0
2017-Dec-08 03:59N 34°38' E 135°24'0 0.0
2017-Dec-08 03:29N 34°38' E 135°24'0 0.0
2017-Dec-08 02:59N 34°38' E 135°24'0 0.0
2017-Dec-08 02:29N 34°38' E 135°24'0 0.0
2017-Dec-08 01:59N 34°38' E 135°24'0 0.0
2017-Dec-08 01:29N 34°38' E 135°24'0 0.0
2017-Dec-08 00:59N 34°38' E 135°24'0 0.0
2017-Dec-08 00:29N 34°38' E 135°24'0 0.0
2017-Dec-07 23:59N 34°38' E 135°24'0 0.0
2017-Dec-07 23:26N 34°38' E 135°24'0 0.0
2017-Dec-07 22:59N 34°38' E 135°24'0 0.3
2017-Dec-07 22:30N 34°38' E 135°24'714.3
2017-Dec-07 22:01N 34°34' E 135°17'1121.6
2017-Dec-07 21:31N 34°26' E 135°08'1121.4
2017-Dec-07 21:00N 34°18' E 135°00'1019.8
2017-Dec-07 20:30N 34°08' E 134°58'1121.3
2017-Dec-07 20:00N 33°57' E 134°56'1220.5
2017-Dec-07 19:26N 33°47' E 134°49'10323.0
2017-Dec-07 14:59N 32°37' E 133°20'  
2017-Dec-04 10:30N 34°16' E 134°58'1020.3
2017-Dec-04 10:00N 34°25' E 135°04'1121.8
2017-Dec-04 09:30N 34°32' E 135°15'919.0
2017-Dec-04 09:01N 34°38' E 135°24'1 1.4
2017-Dec-04 08:30N 34°38' E 135°24'0 0.0
2017-Dec-04 07:58N 34°38' E 135°24'0 0.0
2017-Dec-04 07:25N 34°38' E 135°24'0 0.0
2017-Dec-04 06:55N 34°38' E 135°24'0 0.0
2017-Dec-04 06:25N 34°38' E 135°24'0 0.0
2017-Dec-04 05:55N 34°38' E 135°24'0 0.0
2017-Dec-04 05:25N 34°38' E 135°24'0 0.0
2017-Dec-04 04:55N 34°38' E 135°24'0 0.0
2017-Dec-04 04:25N 34°38' E 135°24'0 0.0
2017-Dec-04 03:55N 34°38' E 135°24'0 0.0
2017-Dec-04 03:28N 34°38' E 135°24'0 0.0
2017-Dec-04 02:55N 34°38' E 135°24'0 0.0
2017-Dec-04 02:25N 34°38' E 135°24'0 0.0
2017-Dec-04 01:55N 34°38' E 135°24'0 0.0
2017-Dec-04 01:28N 34°38' E 135°24'0 0.0
2017-Dec-04 00:58N 34°38' E 135°24'0 0.0
2017-Dec-04 00:25N 34°38' E 135°24'0 0.0
2017-Dec-03 23:55N 34°38' E 135°24'0 0.0
2017-Dec-03 23:25N 34°38' E 135°24'0 0.0
2017-Dec-03 22:58N 34°38' E 135°24'0 0.4
2017-Dec-03 22:30N 34°38' E 135°24'713.8
2017-Dec-03 22:00N 34°34' E 135°18'1020.0
2017-Dec-03 21:31N 34°26' E 135°10'1120.9
2017-Dec-03 21:00N 34°18' E 135°01'918.3
2017-Dec-03 20:30N 34°10' E 134°57'918.6
2017-Dec-03 20:00N 34°01' E 134°53'1020.1
2017-Dec-03 19:30N 33°51' E 134°51'1019.6
2017-Dec-03 19:00N 33°42' E 134°46'1420.6
2017-Dec-03 18:20N 33°33' E 134°35'720.8
2017-Dec-03 17:59N 33°27' E 134°29'7621.3
2017-Dec-03 14:26N 32°38' E 133°20'95 3.6
2017-Dec-02 12:17N 33°43' E 134°43'620.8
2017-Dec-02 12:00N 33°47' E 134°47'1121.0
2017-Dec-02 11:30N 33°56' E 134°54'1020.8
2017-Dec-02 11:00N 34°06' E 134°55'1020.7
2017-Dec-02 10:30N 34°16' E 134°58'1019.9
2017-Dec-02 10:01N 34°25' E 135°04'1121.2
2017-Dec-02 09:31N 34°32' E 135°13'1019.6
2017-Dec-02 09:01N 34°38' E 135°23'1 1.9
2017-Dec-02 08:25N 34°38' E 135°24'0 0.0
2017-Dec-02 07:58N 34°38' E 135°24'0 0.0
2017-Dec-02 07:28N 34°38' E 135°24'0 0.0
2017-Dec-02 06:58N 34°38' E 135°24'0 0.0
2017-Dec-02 06:25N 34°38' E 135°24'0 0.0
2017-Dec-02 05:58N 34°38' E 135°24'0 0.0
2017-Dec-02 05:25N 34°38' E 135°24'0 0.0
2017-Dec-02 04:58N 34°38' E 135°24'0 0.0
2017-Dec-02 04:28N 34°38' E 135°24'0 0.0
2017-Dec-02 03:58N 34°38' E 135°24'0 0.0
2017-Dec-02 03:28N 34°38' E 135°24'0 0.0
2017-Dec-02 02:58N 34°38' E 135°24'0 0.0
2017-Dec-02 02:28N 34°38' E 135°24'0 0.0
2017-Dec-02 01:58N 34°38' E 135°24'0 0.0
2017-Dec-02 01:28N 34°38' E 135°24'0 0.0
2017-Dec-02 00:58N 34°38' E 135°24'0 0.0
2017-Dec-02 00:25N 34°38' E 135°24'0 0.0
2017-Dec-01 23:58N 34°38' E 135°24'0 0.0
2017-Dec-01 23:28N 34°38' E 135°24'0 0.0
2017-Dec-01 22:58N 34°38' E 135°24'1 2.9
2017-Dec-01 22:31N 34°38' E 135°23'1020.6
2017-Dec-01 22:01N 34°31' E 135°13'1121.3
2017-Dec-01 21:31N 34°24' E 135°04'1122.1
2017-Dec-01 21:00N 34°14' E 134°58'1122.3
2017-Dec-01 20:31N 34°03' E 134°55'1222.6
2017-Dec-01 19:59N 33°51' E 134°51'1122.5
2017-Dec-01 19:29N 33°42' E 134°43'9622.3
2017-Dec-01 15:11N 32°37' E 133°20'  
Track history (hours):
 
Tides and Currents Weather Stations Pressure Air Temp Water Temp Dewpoint Dewpoint Depression Visibility Wind Speed Wind Dir Waves Ship Positions

Sunflower Satsuma

Last reported at 2017-Dec-11 15:06 UTC. Time now 2017-Dec-12 06:13 UTC.
Position N 32°37' E 133°19'.

Length 186 m; draft 6.4 m.

Type: Passenger vessel. MMSI: 431319000.

Date/timePositionNaut miles runAvg speedWind from/ knotsBaromVisibWave heightAir tempDewpointWater temp
2017-Dec-11 15:06N 32°37' E 133°19'96 3.5
2017-Dec-10 11:17N 33°42' E 134°44'622.0
2017-Dec-10 11:00N 33°46' E 134°49'1121.7
2017-Dec-10 10:30N 33°57' E 134°53'1122.1
2017-Dec-10 10:00N 34°07' E 134°56'1122.3
2017-Dec-10 09:30N 34°18' E 134°59'1021.0
2017-Dec-10 09:01N 34°26' E 135°07'1121.4
2017-Dec-10 08:30N 34°34' E 135°16'816.4
2017-Dec-10 08:00N 34°38' E 135°24'0 0.0
2017-Dec-10 07:30N 34°38' E 135°24'0 0.0
2017-Dec-10 06:58N 34°38' E 135°24'0 0.0
2017-Dec-10 06:28N 34°38' E 135°24'0 0.0
2017-Dec-10 05:58N 34°38' E 135°24'0 0.0
2017-Dec-10 05:28N 34°38' E 135°24'0 0.0
2017-Dec-10 04:58N 34°38' E 135°24'0 0.0
2017-Dec-10 04:28N 34°38' E 135°24'0 0.0
2017-Dec-10 03:58N 34°38' E 135°24'0 0.0
2017-Dec-10 03:28N 34°38' E 135°24'0 0.0
2017-Dec-10 02:58N 34°38' E 135°24'0 0.0
2017-Dec-10 02:28N 34°38' E 135°24'0 0.0
2017-Dec-10 01:55N 34°38' E 135°24'0 0.0
2017-Dec-10 01:28N 34°38' E 135°24'0 0.0
2017-Dec-10 00:58N 34°38' E 135°24'0 0.0
2017-Dec-10 00:28N 34°38' E 135°24'0 0.0
2017-Dec-09 23:58N 34°38' E 135°24'1 2.0
2017-Dec-09 23:31N 34°38' E 135°23'1020.1
2017-Dec-09 23:00N 34°31' E 135°15'1121.6
2017-Dec-09 22:30N 34°23' E 135°05'1020.6
2017-Dec-09 22:00N 34°15' E 134°58'1121.5
2017-Dec-09 21:30N 34°04' E 134°55'1121.5
2017-Dec-09 21:00N 33°54' E 134°52'1120.5
2017-Dec-09 20:29N 33°44' E 134°46'9822.2
2017-Dec-09 16:05N 32°37' E 133°20'224.0
2017-Dec-09 16:00N 32°36' E 133°19'102 3.6
2017-Dec-08 11:48N 33°47' E 134°47'622.4
2017-Dec-08 11:31N 33°53' E 134°51'1122.6
2017-Dec-08 11:00N 34°04' E 134°55'1223.4
2017-Dec-08 10:31N 34°15' E 134°58'1121.9
2017-Dec-08 10:01N 34°25' E 135°04'1123.0
2017-Dec-08 09:31N 34°32' E 135°15'918.8
2017-Dec-08 09:00N 34°38' E 135°24'1 1.2
2017-Dec-08 08:31N 34°38' E 135°24'0 0.0
2017-Dec-08 07:59N 34°38' E 135°24'0 0.0
2017-Dec-08 07:29N 34°38' E 135°24'0 0.0
2017-Dec-08 06:59N 34°38' E 135°24'0 0.0
2017-Dec-08 06:29N 34°38' E 135°24'0 0.0
2017-Dec-08 05:59N 34°38' E 135°24'0 0.0
2017-Dec-08 05:29N 34°38' E 135°24'0 0.0
2017-Dec-08 04:59N 34°38' E 135°24'0 0.0
2017-Dec-08 04:29N 34°38' E 135°24'0 0.0
2017-Dec-08 03:59N 34°38' E 135°24'0 0.0
2017-Dec-08 03:29N 34°38' E 135°24'0 0.0
2017-Dec-08 02:59N 34°38' E 135°24'0 0.0
2017-Dec-08 02:29N 34°38' E 135°24'0 0.0
2017-Dec-08 01:59N 34°38' E 135°24'0 0.0
2017-Dec-08 01:29N 34°38' E 135°24'0 0.0
2017-Dec-08 00:59N 34°38' E 135°24'0 0.0
2017-Dec-08 00:29N 34°38' E 135°24'0 0.0
2017-Dec-07 23:59N 34°38' E 135°24'0 0.0
2017-Dec-07 23:26N 34°38' E 135°24'0 0.0
2017-Dec-07 22:59N 34°38' E 135°24'0 0.3
2017-Dec-07 22:30N 34°38' E 135°24'714.3
2017-Dec-07 22:01N 34°34' E 135°17'1121.6
2017-Dec-07 21:31N 34°26' E 135°08'1121.4
2017-Dec-07 21:00N 34°18' E 135°00'1019.8
2017-Dec-07 20:30N 34°08' E 134°58'1121.3
2017-Dec-07 20:00N 33°57' E 134°56'1220.5
2017-Dec-07 19:26N 33°47' E 134°49'10323.0
2017-Dec-07 14:59N 32°37' E 133°20'  
2017-Dec-04 10:30N 34°16' E 134°58'1020.3
2017-Dec-04 10:00N 34°25' E 135°04'1121.8
2017-Dec-04 09:30N 34°32' E 135°15'919.0
2017-Dec-04 09:01N 34°38' E 135°24'1 1.4
2017-Dec-04 08:30N 34°38' E 135°24'0 0.0
2017-Dec-04 07:58N 34°38' E 135°24'0 0.0
2017-Dec-04 07:25N 34°38' E 135°24'0 0.0
2017-Dec-04 06:55N 34°38' E 135°24'0 0.0
2017-Dec-04 06:25N 34°38' E 135°24'0 0.0
2017-Dec-04 05:55N 34°38' E 135°24'0 0.0
2017-Dec-04 05:25N 34°38' E 135°24'0 0.0
2017-Dec-04 04:55N 34°38' E 135°24'0 0.0
2017-Dec-04 04:25N 34°38' E 135°24'0 0.0
2017-Dec-04 03:55N 34°38' E 135°24'0 0.0
2017-Dec-04 03:28N 34°38' E 135°24'0 0.0
2017-Dec-04 02:55N 34°38' E 135°24'0 0.0
2017-Dec-04 02:25N 34°38' E 135°24'0 0.0
2017-Dec-04 01:55N 34°38' E 135°24'0 0.0
2017-Dec-04 01:28N 34°38' E 135°24'0 0.0
2017-Dec-04 00:58N 34°38' E 135°24'0 0.0
2017-Dec-04 00:25N 34°38' E 135°24'0 0.0
2017-Dec-03 23:55N 34°38' E 135°24'0 0.0
2017-Dec-03 23:25N 34°38' E 135°24'0 0.0
2017-Dec-03 22:58N 34°38' E 135°24'0 0.4
2017-Dec-03 22:30N 34°38' E 135°24'713.8
2017-Dec-03 22:00N 34°34' E 135°18'1020.0
2017-Dec-03 21:31N 34°26' E 135°10'1120.9
2017-Dec-03 21:00N 34°18' E 135°01'918.3
2017-Dec-03 20:30N 34°10' E 134°57'918.6
2017-Dec-03 20:00N 34°01' E 134°53'1020.1
2017-Dec-03 19:30N 33°51' E 134°51'1019.6
2017-Dec-03 19:00N 33°42' E 134°46'1420.6
2017-Dec-03 18:20N 33°33' E 134°35'720.8
2017-Dec-03 17:59N 33°27' E 134°29'7621.3
2017-Dec-03 14:26N 32°38' E 133°20'95 3.6
2017-Dec-02 12:17N 33°43' E 134°43'620.8
2017-Dec-02 12:00N 33°47' E 134°47'1121.0
2017-Dec-02 11:30N 33°56' E 134°54'1020.8
2017-Dec-02 11:00N 34°06' E 134°55'1020.7
2017-Dec-02 10:30N 34°16' E 134°58'1019.9
2017-Dec-02 10:01N 34°25' E 135°04'1121.2
2017-Dec-02 09:31N 34°32' E 135°13'1019.6
2017-Dec-02 09:01N 34°38' E 135°23'1 1.9
2017-Dec-02 08:25N 34°38' E 135°24'0 0.0
2017-Dec-02 07:58N 34°38' E 135°24'0 0.0
2017-Dec-02 07:28N 34°38' E 135°24'0 0.0
2017-Dec-02 06:58N 34°38' E 135°24'0 0.0
2017-Dec-02 06:25N 34°38' E 135°24'0 0.0
2017-Dec-02 05:58N 34°38' E 135°24'0 0.0
2017-Dec-02 05:25N 34°38' E 135°24'0 0.0
2017-Dec-02 04:58N 34°38' E 135°24'0 0.0
2017-Dec-02 04:28N 34°38' E 135°24'0 0.0
2017-Dec-02 03:58N 34°38' E 135°24'0 0.0
2017-Dec-02 03:28N 34°38' E 135°24'0 0.0
2017-Dec-02 02:58N 34°38' E 135°24'0 0.0
2017-Dec-02 02:28N 34°38' E 135°24'0 0.0
2017-Dec-02 01:58N 34°38' E 135°24'0 0.0
2017-Dec-02 01:28N 34°38' E 135°24'0 0.0
2017-Dec-02 00:58N 34°38' E 135°24'0 0.0
2017-Dec-02 00:25N 34°38' E 135°24'0 0.0
2017-Dec-01 23:58N 34°38' E 135°24'0 0.0
2017-Dec-01 23:28N 34°38' E 135°24'0 0.0
2017-Dec-01 22:58N 34°38' E 135°24'1 2.9
2017-Dec-01 22:31N 34°38' E 135°23'1020.6
2017-Dec-01 22:01N 34°31' E 135°13'1121.3
2017-Dec-01 21:31N 34°24' E 135°04'1122.1
2017-Dec-01 21:00N 34°14' E 134°58'1122.3
2017-Dec-01 20:31N 34°03' E 134°55'1222.6
2017-Dec-01 19:59N 33°51' E 134°51'1122.5
2017-Dec-01 19:29N 33°42' E 134°43'9622.3
2017-Dec-01 15:11N 32°37' E 133°20'  

Dump ship's entire track history